Weather at Isla Cristina Agricultural Airstrip

Public forecast

Using degrees Celsius for public forecast. Weather courtesy of forecast.io.

Closest aviation weather report (METAR) to Isla Cristina Agricultural Airstrip

Closest report is Faro Airport, 33.9 nm (62.8 km) WSW.

2024/07/25 10:00 (retrieved 28 minutes ago)

LPFR 251000Z 26011KT CAVOK 25/17 Q1011

Closest aviation forecast (TAF) to Isla Cristina Agricultural Airstrip

Closest forecast is Faro Airport, 33.9 nm (62.8 km) WSW.

2024/07/25 06:18 (retrieved 4 hours ago)

TAF LPFR 250500Z 2506/2606 29005KT CAVOK BECMG 2509/2511 26015KT BECMG 2518/2520 30012KT